sensor_id;sensor_type;location;lat;lon;timestamp;temperature;humidity
46139;DHT22;32398;49.112;8.598;2022-11-06T00:00:25;8.00;95.90
46139;DHT22;32398;49.112;8.598;2022-11-06T00:02:52;8.10;95.90
46139;DHT22;32398;49.112;8.598;2022-11-06T00:05:18;8.00;95.90
46139;DHT22;32398;49.112;8.598;2022-11-06T00:08:03;8.00;95.90
46139;DHT22;32398;49.112;8.598;2022-11-06T00:10:30;8.00;95.90
46139;DHT22;32398;49.112;8.598;2022-11-06T00:12:58;8.00;95.90
46139;DHT22;32398;49.112;8.598;2022-11-06T00:15:25;8.00;95.90
46139;DHT22;32398;49.112;8.598;2022-11-06T00:17:51;7.90;95.90
46139;DHT22;32398;49.112;8.598;2022-11-06T00:20:18;7.90;95.90
46139;DHT22;32398;49.112;8.598;2022-11-06T00:22:45;7.90;95.90
46139;DHT22;32398;49.112;8.598;2022-11-06T00:25:11;7.90;96.00
46139;DHT22;32398;49.112;8.598;2022-11-06T00:27:38;7.90;96.00
46139;DHT22;32398;49.112;8.598;2022-11-06T00:30:07;7.90;96.00
46139;DHT22;32398;49.112;8.598;2022-11-06T00:32:35;7.80;96.00
46139;DHT22;32398;49.112;8.598;2022-11-06T00:35:02;7.80;96.00
46139;DHT22;32398;49.112;8.598;2022-11-06T00:37:29;7.80;96.00
46139;DHT22;32398;49.112;8.598;2022-11-06T00:39:55;7.80;96.00
46139;DHT22;32398;49.112;8.598;2022-11-06T00:42:23;7.80;96.00
46139;DHT22;32398;49.112;8.598;2022-11-06T00:44:50;7.80;96.40
46139;DHT22;32398;49.112;8.598;2022-11-06T00:47:18;7.70;96.00
46139;DHT22;32398;49.112;8.598;2022-11-06T00:49:44;7.80;96.10
46139;DHT22;32398;49.112;8.598;2022-11-06T00:52:11;7.80;96.10
46139;DHT22;32398;49.112;8.598;2022-11-06T00:54:37;7.70;96.00
46139;DHT22;32398;49.112;8.598;2022-11-06T00:57:04;7.70;96.10
46139;DHT22;32398;49.112;8.598;2022-11-06T00:59:31;7.60;96.10
46139;DHT22;32398;49.112;8.598;2022-11-06T01:01:57;7.70;96.10
46139;DHT22;32398;49.112;8.598;2022-11-06T01:04:25;7.60;96.00
46139;DHT22;32398;49.112;8.598;2022-11-06T01:06:52;7.60;96.00
46139;DHT22;32398;49.112;8.598;2022-11-06T01:09:21;7.60;96.00
46139;DHT22;32398;49.112;8.598;2022-11-06T01:11:52;7.60;96.00
46139;DHT22;32398;49.112;8.598;2022-11-06T01:14:19;7.60;96.00
46139;DHT22;32398;49.112;8.598;2022-11-06T01:16:46;7.60;96.00
46139;DHT22;32398;49.112;8.598;2022-11-06T01:19:13;7.60;96.00
46139;DHT22;32398;49.112;8.598;2022-11-06T01:21:42;7.50;96.00
46139;DHT22;32398;49.112;8.598;2022-11-06T01:24:09;7.50;96.00
46139;DHT22;32398;49.112;8.598;2022-11-06T01:26:36;7.50;95.90
46139;DHT22;32398;49.112;8.598;2022-11-06T01:29:03;7.50;95.90
46139;DHT22;32398;49.112;8.598;2022-11-06T01:31:30;7.50;95.90
46139;DHT22;32398;49.112;8.598;2022-11-06T01:33:57;7.40;95.90
46139;DHT22;32398;49.112;8.598;2022-11-06T01:36:24;7.40;95.90
46139;DHT22;32398;49.112;8.598;2022-11-06T01:38:53;7.40;95.90
46139;DHT22;32398;49.112;8.598;2022-11-06T01:41:20;7.40;95.90
46139;DHT22;32398;49.112;8.598;2022-11-06T01:43:48;7.40;95.90
46139;DHT22;32398;49.112;8.598;2022-11-06T01:46:15;7.30;95.90
46139;DHT22;32398;49.112;8.598;2022-11-06T01:48:42;7.30;95.90
46139;DHT22;32398;49.112;8.598;2022-11-06T01:51:09;7.30;95.90
46139;DHT22;32398;49.112;8.598;2022-11-06T01:53:36;7.30;95.90
46139;DHT22;32398;49.112;8.598;2022-11-06T01:56:05;7.30;95.90
46139;DHT22;32398;49.112;8.598;2022-11-06T01:58:33;7.30;95.90
46139;DHT22;32398;49.112;8.598;2022-11-06T02:01:01;7.20;95.90
46139;DHT22;32398;49.112;8.598;2022-11-06T02:03:28;7.30;95.90
46139;DHT22;32398;49.112;8.598;2022-11-06T02:05:55;7.30;95.90
46139;DHT22;32398;49.112;8.598;2022-11-06T02:08:22;7.20;95.90
46139;DHT22;32398;49.112;8.598;2022-11-06T02:10:49;7.20;95.90
46139;DHT22;32398;49.112;8.598;2022-11-06T02:13:20;7.20;95.90
46139;DHT22;32398;49.112;8.598;2022-11-06T02:15:48;7.20;95.90
46139;DHT22;32398;49.112;8.598;2022-11-06T02:18:18;7.10;95.90
46139;DHT22;32398;49.112;8.598;2022-11-06T02:20:51;7.10;95.90
46139;DHT22;32398;49.112;8.598;2022-11-06T02:26:14;7.10;95.80
46139;DHT22;32398;49.112;8.598;2022-11-06T02:28:45;7.00;95.80
46139;DHT22;32398;49.112;8.598;2022-11-06T02:31:16;7.00;95.80
46139;DHT22;32398;49.112;8.598;2022-11-06T02:33:46;7.00;95.90
46139;DHT22;32398;49.112;8.598;2022-11-06T02:36:15;7.00;95.90
46139;DHT22;32398;49.112;8.598;2022-11-06T02:38:43;7.00;95.80
46139;DHT22;32398;49.112;8.598;2022-11-06T02:41:14;7.00;95.90
46139;DHT22;32398;49.112;8.598;2022-11-06T02:43:42;7.00;95.90
46139;DHT22;32398;49.112;8.598;2022-11-06T02:46:12;6.90;95.90
46139;DHT22;32398;49.112;8.598;2022-11-06T02:48:42;6.90;95.90
46139;DHT22;32398;49.112;8.598;2022-11-06T02:51:11;6.90;95.90
46139;DHT22;32398;49.112;8.598;2022-11-06T02:53:40;6.90;95.90
46139;DHT22;32398;49.112;8.598;2022-11-06T02:56:08;6.90;95.90
46139;DHT22;32398;49.112;8.598;2022-11-06T02:58:37;6.90;95.90
46139;DHT22;32398;49.112;8.598;2022-11-06T03:01:05;6.80;95.90
46139;DHT22;32398;49.112;8.598;2022-11-06T03:03:35;6.80;95.90
46139;DHT22;32398;49.112;8.598;2022-11-06T03:06:05;6.80;95.90
46139;DHT22;32398;49.112;8.598;2022-11-06T03:08:33;6.80;95.90
46139;DHT22;32398;49.112;8.598;2022-11-06T03:11:03;6.80;95.90
46139;DHT22;32398;49.112;8.598;2022-11-06T03:13:34;6.80;95.90
46139;DHT22;32398;49.112;8.598;2022-11-06T03:16:06;6.70;95.90
46139;DHT22;32398;49.112;8.598;2022-11-06T03:18:35;6.80;95.90
46139;DHT22;32398;49.112;8.598;2022-11-06T03:21:04;6.70;95.90
46139;DHT22;32398;49.112;8.598;2022-11-06T03:23:32;6.70;95.90
46139;DHT22;32398;49.112;8.598;2022-11-06T03:26:02;6.60;95.90
46139;DHT22;32398;49.112;8.598;2022-11-06T03:28:33;6.70;95.90
46139;DHT22;32398;49.112;8.598;2022-11-06T03:31:02;6.70;95.90
46139;DHT22;32398;49.112;8.598;2022-11-06T03:33:31;6.60;95.90
46139;DHT22;32398;49.112;8.598;2022-11-06T03:36:02;6.60;95.90
46139;DHT22;32398;49.112;8.598;2022-11-06T03:38:30;6.60;95.90
46139;DHT22;32398;49.112;8.598;2022-11-06T03:40:59;6.60;95.90
46139;DHT22;32398;49.112;8.598;2022-11-06T03:43:27;6.60;95.90
46139;DHT22;32398;49.112;8.598;2022-11-06T03:45:55;6.50;95.90
46139;DHT22;32398;49.112;8.598;2022-11-06T03:48:24;6.50;95.90
46139;DHT22;32398;49.112;8.598;2022-11-06T03:50:56;6.50;95.90
46139;DHT22;32398;49.112;8.598;2022-11-06T03:53:26;6.50;95.90
46139;DHT22;32398;49.112;8.598;2022-11-06T03:55:54;6.50;95.90
46139;DHT22;32398;49.112;8.598;2022-11-06T03:58:23;6.50;95.90
46139;DHT22;32398;49.112;8.598;2022-11-06T04:00:50;6.50;95.90
46139;DHT22;32398;49.112;8.598;2022-11-06T04:03:21;6.40;95.90
46139;DHT22;32398;49.112;8.598;2022-11-06T04:05:50;6.40;95.90
46139;DHT22;32398;49.112;8.598;2022-11-06T04:08:19;6.40;96.00
46139;DHT22;32398;49.112;8.598;2022-11-06T04:11:06;6.40;95.90
46139;DHT22;32398;49.112;8.598;2022-11-06T04:13:50;6.40;96.00
46139;DHT22;32398;49.112;8.598;2022-11-06T04:16:26;6.40;96.00
46139;DHT22;32398;49.112;8.598;2022-11-06T04:18:54;6.40;95.90
46139;DHT22;32398;49.112;8.598;2022-11-06T04:21:23;6.30;95.90
46139;DHT22;32398;49.112;8.598;2022-11-06T04:23:56;6.30;95.90
46139;DHT22;32398;49.112;8.598;2022-11-06T04:26:46;6.30;96.00
46139;DHT22;32398;49.112;8.598;2022-11-06T04:29:19;6.30;96.00
46139;DHT22;32398;49.112;8.598;2022-11-06T04:31:49;6.20;95.90
46139;DHT22;32398;49.112;8.598;2022-11-06T04:34:25;6.20;96.20
46139;DHT22;32398;49.112;8.598;2022-11-06T04:36:57;6.20;96.00
46139;DHT22;32398;49.112;8.598;2022-11-06T04:39:27;6.20;96.00
46139;DHT22;32398;49.112;8.598;2022-11-06T04:42:00;6.20;96.00
46139;DHT22;32398;49.112;8.598;2022-11-06T04:44:31;6.20;96.00
46139;DHT22;32398;49.112;8.598;2022-11-06T04:46:59;6.20;96.00
46139;DHT22;32398;49.112;8.598;2022-11-06T04:49:28;6.20;96.00
46139;DHT22;32398;49.112;8.598;2022-11-06T04:51:56;6.20;96.00
46139;DHT22;32398;49.112;8.598;2022-11-06T04:54:23;6.10;96.00
46139;DHT22;32398;49.112;8.598;2022-11-06T04:56:50;6.20;96.00
46139;DHT22;32398;49.112;8.598;2022-11-06T04:59:18;6.10;96.00
46139;DHT22;32398;49.112;8.598;2022-11-06T05:01:44;6.10;96.00
46139;DHT22;32398;49.112;8.598;2022-11-06T05:04:11;6.10;96.00
46139;DHT22;32398;49.112;8.598;2022-11-06T05:06:38;6.00;96.00
46139;DHT22;32398;49.112;8.598;2022-11-06T05:09:04;6.10;96.10
46139;DHT22;32398;49.112;8.598;2022-11-06T05:11:31;6.10;96.10
46139;DHT22;32398;49.112;8.598;2022-11-06T05:13:57;6.10;96.10
46139;DHT22;32398;49.112;8.598;2022-11-06T05:16:25;6.00;96.00
46139;DHT22;32398;49.112;8.598;2022-11-06T05:18:52;6.00;96.10
46139;DHT22;32398;49.112;8.598;2022-11-06T05:21:18;6.00;96.00
46139;DHT22;32398;49.112;8.598;2022-11-06T05:24:03;6.00;96.00
46139;DHT22;32398;49.112;8.598;2022-11-06T05:26:30;6.00;96.00
46139;DHT22;32398;49.112;8.598;2022-11-06T05:28:56;6.00;96.00
46139;DHT22;32398;49.112;8.598;2022-11-06T05:31:23;6.00;96.10
46139;DHT22;32398;49.112;8.598;2022-11-06T05:33:51;5.90;96.00
46139;DHT22;32398;49.112;8.598;2022-11-06T05:36:18;5.90;96.00
46139;DHT22;32398;49.112;8.598;2022-11-06T05:38:44;5.90;96.00
46139;DHT22;32398;49.112;8.598;2022-11-06T05:41:11;5.90;96.00
46139;DHT22;32398;49.112;8.598;2022-11-06T05:43:37;5.90;96.10
46139;DHT22;32398;49.112;8.598;2022-11-06T05:46:04;5.90;96.10
46139;DHT22;32398;49.112;8.598;2022-11-06T05:48:30;5.80;96.00
46139;DHT22;32398;49.112;8.598;2022-11-06T05:51:02;5.90;96.10
46139;DHT22;32398;49.112;8.598;2022-11-06T05:53:29;5.80;96.00
46139;DHT22;32398;49.112;8.598;2022-11-06T05:55:56;5.80;96.00
46139;DHT22;32398;49.112;8.598;2022-11-06T05:58:22;5.80;96.00
46139;DHT22;32398;49.112;8.598;2022-11-06T06:00:49;5.80;96.00
46139;DHT22;32398;49.112;8.598;2022-11-06T06:03:16;5.70;96.00
46139;DHT22;32398;49.112;8.598;2022-11-06T06:05:42;5.80;96.00
46139;DHT22;32398;49.112;8.598;2022-11-06T06:08:10;5.80;96.00
46139;DHT22;32398;49.112;8.598;2022-11-06T06:10:39;5.70;96.00
46139;DHT22;32398;49.112;8.598;2022-11-06T06:13:05;5.70;96.00
46139;DHT22;32398;49.112;8.598;2022-11-06T06:15:32;5.70;96.00
46139;DHT22;32398;49.112;8.598;2022-11-06T06:17:58;5.70;96.00
46139;DHT22;32398;49.112;8.598;2022-11-06T06:20:25;5.70;95.90
46139;DHT22;32398;49.112;8.598;2022-11-06T06:22:52;5.70;96.00
46139;DHT22;32398;49.112;8.598;2022-11-06T06:25:20;5.60;95.90
46139;DHT22;32398;49.112;8.598;2022-11-06T06:27:47;5.60;96.00
46139;DHT22;32398;49.112;8.598;2022-11-06T06:30:14;5.60;96.00
46139;DHT22;32398;49.112;8.598;2022-11-06T06:32:40;5.60;95.90
46139;DHT22;32398;49.112;8.598;2022-11-06T06:35:07;5.60;95.90
46139;DHT22;32398;49.112;8.598;2022-11-06T06:37:33;5.60;95.90
46139;DHT22;32398;49.112;8.598;2022-11-06T06:40:00;5.60;95.90
46139;DHT22;32398;49.112;8.598;2022-11-06T06:42:28;5.50;95.90
46139;DHT22;32398;49.112;8.598;2022-11-06T06:44:55;5.50;95.90
46139;DHT22;32398;49.112;8.598;2022-11-06T06:47:21;5.50;95.90
46139;DHT22;32398;49.112;8.598;2022-11-06T06:49:48;5.50;95.90
46139;DHT22;32398;49.112;8.598;2022-11-06T06:52:14;5.50;95.90
46139;DHT22;32398;49.112;8.598;2022-11-06T06:54:41;5.50;95.90
46139;DHT22;32398;49.112;8.598;2022-11-06T06:57:08;5.40;95.90
46139;DHT22;32398;49.112;8.598;2022-11-06T06:59:35;5.40;95.90
46139;DHT22;32398;49.112;8.598;2022-11-06T07:02:02;5.40;95.90
46139;DHT22;32398;49.112;8.598;2022-11-06T07:04:29;5.40;95.90
46139;DHT22;32398;49.112;8.598;2022-11-06T07:06:55;5.40;96.00
46139;DHT22;32398;49.112;8.598;2022-11-06T07:09:22;5.40;96.00
46139;DHT22;32398;49.112;8.598;2022-11-06T07:11:49;5.40;96.00
46139;DHT22;32398;49.112;8.598;2022-11-06T07:14:15;5.30;96.00
46139;DHT22;32398;49.112;8.598;2022-11-06T07:16:43;5.40;96.00
46139;DHT22;32398;49.112;8.598;2022-11-06T07:19:10;5.30;96.00
46139;DHT22;32398;49.112;8.598;2022-11-06T07:21:36;5.30;96.00
46139;DHT22;32398;49.112;8.598;2022-11-06T07:24:03;5.30;96.10
46139;DHT22;32398;49.112;8.598;2022-11-06T07:26:30;5.30;96.10
46139;DHT22;32398;49.112;8.598;2022-11-06T07:28:56;5.30;96.10
46139;DHT22;32398;49.112;8.598;2022-11-06T07:31:23;5.30;96.10
46139;DHT22;32398;49.112;8.598;2022-11-06T07:33:51;5.30;96.10
46139;DHT22;32398;49.112;8.598;2022-11-06T07:36:17;5.30;96.10
46139;DHT22;32398;49.112;8.598;2022-11-06T07:38:44;5.30;96.10
46139;DHT22;32398;49.112;8.598;2022-11-06T07:41:11;5.30;96.10
46139;DHT22;32398;49.112;8.598;2022-11-06T07:43:38;5.20;96.20
46139;DHT22;32398;49.112;8.598;2022-11-06T07:46:06;5.20;96.20
46139;DHT22;32398;49.112;8.598;2022-11-06T07:48:33;5.20;96.20
46139;DHT22;32398;49.112;8.598;2022-11-06T07:51:02;5.20;96.20
46139;DHT22;32398;49.112;8.598;2022-11-06T07:53:29;5.20;96.20
46139;DHT22;32398;49.112;8.598;2022-11-06T07:55:56;5.20;96.20
46139;DHT22;32398;49.112;8.598;2022-11-06T07:58:23;5.20;96.30
46139;DHT22;32398;49.112;8.598;2022-11-06T08:00:50;5.20;96.30
46139;DHT22;32398;49.112;8.598;2022-11-06T08:03:17;5.20;96.30
46139;DHT22;32398;49.112;8.598;2022-11-06T08:05:44;5.20;96.40
46139;DHT22;32398;49.112;8.598;2022-11-06T08:08:12;5.20;96.30
46139;DHT22;32398;49.112;8.598;2022-11-06T08:10:39;5.20;96.40
46139;DHT22;32398;49.112;8.598;2022-11-06T08:13:08;5.20;96.40
46139;DHT22;32398;49.112;8.598;2022-11-06T08:15:35;5.20;96.40
46139;DHT22;32398;49.112;8.598;2022-11-06T08:18:02;5.20;96.40
46139;DHT22;32398;49.112;8.598;2022-11-06T08:20:29;5.20;96.40
46139;DHT22;32398;49.112;8.598;2022-11-06T08:22:57;5.10;96.40
46139;DHT22;32398;49.112;8.598;2022-11-06T08:25:25;5.20;96.40
46139;DHT22;32398;49.112;8.598;2022-11-06T08:27:53;5.20;96.50
46139;DHT22;32398;49.112;8.598;2022-11-06T08:30:19;5.20;96.50
46139;DHT22;32398;49.112;8.598;2022-11-06T08:32:46;5.20;96.50
46139;DHT22;32398;49.112;8.598;2022-11-06T08:35:12;5.20;96.50
46139;DHT22;32398;49.112;8.598;2022-11-06T08:37:39;5.20;96.50
46139;DHT22;32398;49.112;8.598;2022-11-06T08:40:06;5.20;96.50
46139;DHT22;32398;49.112;8.598;2022-11-06T08:42:34;5.20;96.50
46139;DHT22;32398;49.112;8.598;2022-11-06T08:45:01;5.10;96.50
46139;DHT22;32398;49.112;8.598;2022-11-06T08:47:28;5.20;96.60
46139;DHT22;32398;49.112;8.598;2022-11-06T08:49:54;5.20;96.60
46139;DHT22;32398;49.112;8.598;2022-11-06T08:52:21;5.10;96.50
46139;DHT22;32398;49.112;8.598;2022-11-06T08:54:47;5.20;96.60
46139;DHT22;32398;49.112;8.598;2022-11-06T08:57:14;5.20;96.60
46139;DHT22;32398;49.112;8.598;2022-11-06T08:59:42;5.20;96.60
46139;DHT22;32398;49.112;8.598;2022-11-06T09:02:09;5.20;96.60
46139;DHT22;32398;49.112;8.598;2022-11-06T09:04:36;5.20;96.60
46139;DHT22;32398;49.112;8.598;2022-11-06T09:07:03;5.20;96.50
46139;DHT22;32398;49.112;8.598;2022-11-06T09:09:29;5.20;96.50
46139;DHT22;32398;49.112;8.598;2022-11-06T09:11:57;5.20;96.50
46139;DHT22;32398;49.112;8.598;2022-11-06T09:14:24;5.20;96.50
46139;DHT22;32398;49.112;8.598;2022-11-06T09:16:52;5.30;96.60
46139;DHT22;32398;49.112;8.598;2022-11-06T09:19:19;5.20;96.60
46139;DHT22;32398;49.112;8.598;2022-11-06T09:21:46;5.30;96.70
46139;DHT22;32398;49.112;8.598;2022-11-06T09:24:12;5.30;96.70
46139;DHT22;32398;49.112;8.598;2022-11-06T09:26:39;5.30;96.70
46139;DHT22;32398;49.112;8.598;2022-11-06T09:29:06;5.30;96.70
46139;DHT22;32398;49.112;8.598;2022-11-06T09:31:32;5.20;96.60
46139;DHT22;32398;49.112;8.598;2022-11-06T09:34:00;5.30;96.70
46139;DHT22;32398;49.112;8.598;2022-11-06T09:36:27;5.30;96.70
46139;DHT22;32398;49.112;8.598;2022-11-06T09:38:54;5.30;96.70
46139;DHT22;32398;49.112;8.598;2022-11-06T09:41:22;5.40;96.70
46139;DHT22;32398;49.112;8.598;2022-11-06T09:43:54;5.40;96.80
46139;DHT22;32398;49.112;8.598;2022-11-06T09:46:25;5.50;96.80
46139;DHT22;32398;49.112;8.598;2022-11-06T09:48:53;5.50;96.70
46139;DHT22;32398;49.112;8.598;2022-11-06T09:51:26;5.60;96.70
46139;DHT22;32398;49.112;8.598;2022-11-06T09:53:54;5.60;96.60
46139;DHT22;32398;49.112;8.598;2022-11-06T09:56:22;5.70;96.40
46139;DHT22;32398;49.112;8.598;2022-11-06T09:58:51;5.80;96.30
46139;DHT22;32398;49.112;8.598;2022-11-06T10:01:18;5.90;96.20
46139;DHT22;32398;49.112;8.598;2022-11-06T10:03:48;5.90;96.00
46139;DHT22;32398;49.112;8.598;2022-11-06T10:06:16;6.00;95.90
46139;DHT22;32398;49.112;8.598;2022-11-06T10:08:44;6.10;95.80
46139;DHT22;32398;49.112;8.598;2022-11-06T10:11:20;6.10;95.70
46139;DHT22;32398;49.112;8.598;2022-11-06T10:13:51;6.20;95.60
46139;DHT22;32398;49.112;8.598;2022-11-06T10:16:24;6.30;95.50
46139;DHT22;32398;49.112;8.598;2022-11-06T10:18:57;6.40;95.40
46139;DHT22;32398;49.112;8.598;2022-11-06T10:21:30;6.40;95.30
46139;DHT22;32398;49.112;8.598;2022-11-06T10:24:02;6.50;95.20
46139;DHT22;32398;49.112;8.598;2022-11-06T10:26:34;6.50;95.00
46139;DHT22;32398;49.112;8.598;2022-11-06T10:29:06;6.60;95.00
46139;DHT22;32398;49.112;8.598;2022-11-06T10:31:36;6.70;94.80
46139;DHT22;32398;49.112;8.598;2022-11-06T10:34:05;6.70;94.70
46139;DHT22;32398;49.112;8.598;2022-11-06T10:36:34;6.80;94.70
46139;DHT22;32398;49.112;8.598;2022-11-06T10:39:03;6.80;94.60
46139;DHT22;32398;49.112;8.598;2022-11-06T10:41:34;6.90;94.60
46139;DHT22;32398;49.112;8.598;2022-11-06T10:44:04;6.90;94.50
46139;DHT22;32398;49.112;8.598;2022-11-06T10:46:32;7.00;94.50
46139;DHT22;32398;49.112;8.598;2022-11-06T10:49:00;7.00;94.40
46139;DHT22;32398;49.112;8.598;2022-11-06T10:51:31;7.10;94.50
46139;DHT22;32398;49.112;8.598;2022-11-06T10:54:05;7.10;94.50
46139;DHT22;32398;49.112;8.598;2022-11-06T10:56:39;7.20;94.60
46139;DHT22;32398;49.112;8.598;2022-11-06T10:59:11;7.20;94.50
46139;DHT22;32398;49.112;8.598;2022-11-06T11:01:38;7.30;94.50
46139;DHT22;32398;49.112;8.598;2022-11-06T11:04:04;7.30;94.40
46139;DHT22;32398;49.112;8.598;2022-11-06T11:06:31;7.30;94.40
46139;DHT22;32398;49.112;8.598;2022-11-06T11:08:57;7.40;94.40
46139;DHT22;32398;49.112;8.598;2022-11-06T11:11:27;7.40;94.40
46139;DHT22;32398;49.112;8.598;2022-11-06T11:14:11;7.50;94.40
46139;DHT22;32398;49.112;8.598;2022-11-06T11:16:38;7.50;94.40
46139;DHT22;32398;49.112;8.598;2022-11-06T11:19:21;7.60;94.40
46139;DHT22;32398;49.112;8.598;2022-11-06T11:21:52;7.60;94.40
46139;DHT22;32398;49.112;8.598;2022-11-06T11:24:19;7.70;94.30
46139;DHT22;32398;49.112;8.598;2022-11-06T11:26:48;7.80;94.30
46139;DHT22;32398;49.112;8.598;2022-11-06T11:29:16;7.80;94.20
46139;DHT22;32398;49.112;8.598;2022-11-06T11:31:45;7.90;94.20
46139;DHT22;32398;49.112;8.598;2022-11-06T11:34:15;7.90;94.00
46139;DHT22;32398;49.112;8.598;2022-11-06T11:36:46;8.00;94.00
46139;DHT22;32398;49.112;8.598;2022-11-06T11:39:12;8.10;94.00
46139;DHT22;32398;49.112;8.598;2022-11-06T11:41:39;8.20;93.80
46139;DHT22;32398;49.112;8.598;2022-11-06T11:44:13;8.20;93.70
46139;DHT22;32398;49.112;8.598;2022-11-06T11:46:44;8.30;93.70
46139;DHT22;32398;49.112;8.598;2022-11-06T11:49:12;8.40;93.60
46139;DHT22;32398;49.112;8.598;2022-11-06T11:51:50;8.40;93.60
46139;DHT22;32398;49.112;8.598;2022-11-06T11:54:18;8.50;93.50
46139;DHT22;32398;49.112;8.598;2022-11-06T11:56:47;8.50;93.50
46139;DHT22;32398;49.112;8.598;2022-11-06T11:59:17;8.60;93.50
46139;DHT22;32398;49.112;8.598;2022-11-06T12:01:45;8.70;93.50
46139;DHT22;32398;49.112;8.598;2022-11-06T12:04:14;8.70;93.50
46139;DHT22;32398;49.112;8.598;2022-11-06T12:06:49;8.80;93.40
46139;DHT22;32398;49.112;8.598;2022-11-06T12:09:15;8.80;93.30
46139;DHT22;32398;49.112;8.598;2022-11-06T12:11:42;8.80;93.30
46139;DHT22;32398;49.112;8.598;2022-11-06T12:14:17;8.90;93.20
46139;DHT22;32398;49.112;8.598;2022-11-06T12:16:44;8.90;93.20
46139;DHT22;32398;49.112;8.598;2022-11-06T12:19:11;8.90;93.30
46139;DHT22;32398;49.112;8.598;2022-11-06T12:21:39;8.90;93.30
46139;DHT22;32398;49.112;8.598;2022-11-06T12:24:09;8.90;93.30
46139;DHT22;32398;49.112;8.598;2022-11-06T12:26:39;8.90;93.30
46139;DHT22;32398;49.112;8.598;2022-11-06T12:29:07;8.90;93.40
46139;DHT22;32398;49.112;8.598;2022-11-06T12:31:37;8.90;93.80
46139;DHT22;32398;49.112;8.598;2022-11-06T12:34:06;8.80;93.50
46139;DHT22;32398;49.112;8.598;2022-11-06T12:36:36;8.90;93.60
46139;DHT22;32398;49.112;8.598;2022-11-06T12:39:09;8.90;93.70
46139;DHT22;32398;49.112;8.598;2022-11-06T12:41:38;8.90;93.70
46139;DHT22;32398;49.112;8.598;2022-11-06T12:44:07;8.90;93.80
46139;DHT22;32398;49.112;8.598;2022-11-06T12:46:41;8.80;93.80
46139;DHT22;32398;49.112;8.598;2022-11-06T12:52:00;8.80;94.00
46139;DHT22;32398;49.112;8.598;2022-11-06T12:54:37;8.80;94.00
46139;DHT22;32398;49.112;8.598;2022-11-06T12:57:08;8.90;94.20
46139;DHT22;32398;49.112;8.598;2022-11-06T12:59:40;8.90;94.20
46139;DHT22;32398;49.112;8.598;2022-11-06T13:02:18;8.90;94.20
46139;DHT22;32398;49.112;8.598;2022-11-06T13:04:49;8.90;94.20
46139;DHT22;32398;49.112;8.598;2022-11-06T13:07:34;8.90;94.20
46139;DHT22;32398;49.112;8.598;2022-11-06T13:12:48;8.90;94.20
46139;DHT22;32398;49.112;8.598;2022-11-06T13:15:20;8.90;94.20
46139;DHT22;32398;49.112;8.598;2022-11-06T13:17:51;9.00;94.20
46139;DHT22;32398;49.112;8.598;2022-11-06T13:20:21;8.90;94.20
46139;DHT22;32398;49.112;8.598;2022-11-06T13:22:52;9.00;94.20
46139;DHT22;32398;49.112;8.598;2022-11-06T13:25:25;9.00;94.20
46139;DHT22;32398;49.112;8.598;2022-11-06T13:27:54;9.10;94.30
46139;DHT22;32398;49.112;8.598;2022-11-06T13:30:22;9.00;94.30
46139;DHT22;32398;49.112;8.598;2022-11-06T13:32:56;9.10;94.30
46139;DHT22;32398;49.112;8.598;2022-11-06T13:35:23;9.00;94.30
46139;DHT22;32398;49.112;8.598;2022-11-06T13:37:50;9.10;94.40
46139;DHT22;32398;49.112;8.598;2022-11-06T13:40:19;9.10;94.40
46139;DHT22;32398;49.112;8.598;2022-11-06T13:42:48;9.10;94.30
46139;DHT22;32398;49.112;8.598;2022-11-06T13:45:16;9.10;94.30
46139;DHT22;32398;49.112;8.598;2022-11-06T13:47:48;9.10;94.30
46139;DHT22;32398;49.112;8.598;2022-11-06T13:50:24;9.10;94.30
46139;DHT22;32398;49.112;8.598;2022-11-06T13:52:53;9.10;94.40
46139;DHT22;32398;49.112;8.598;2022-11-06T13:55:23;9.20;94.40
46139;DHT22;32398;49.112;8.598;2022-11-06T13:58:02;9.20;94.40
46139;DHT22;32398;49.112;8.598;2022-11-06T14:00:36;9.20;94.40
46139;DHT22;32398;49.112;8.598;2022-11-06T14:03:24;9.20;94.50
46139;DHT22;32398;49.112;8.598;2022-11-06T14:05:59;9.20;94.50
46139;DHT22;32398;49.112;8.598;2022-11-06T14:08:27;9.30;94.50
46139;DHT22;32398;49.112;8.598;2022-11-06T14:10:56;9.20;94.60
46139;DHT22;32398;49.112;8.598;2022-11-06T14:13:27;9.20;94.60
46139;DHT22;32398;49.112;8.598;2022-11-06T14:15:59;9.20;94.60
46139;DHT22;32398;49.112;8.598;2022-11-06T14:18:26;9.30;94.70
46139;DHT22;32398;49.112;8.598;2022-11-06T14:23:52;9.30;94.60
46139;DHT22;32398;49.112;8.598;2022-11-06T14:31:56;9.30;94.60
46139;DHT22;32398;49.112;8.598;2022-11-06T14:34:26;9.30;94.60
46139;DHT22;32398;49.112;8.598;2022-11-06T14:36:53;9.40;94.60
46139;DHT22;32398;49.112;8.598;2022-11-06T14:40:00;9.30;94.60
46139;DHT22;32398;49.112;8.598;2022-11-06T14:42:27;9.30;94.60
46139;DHT22;32398;49.112;8.598;2022-11-06T14:44:54;9.40;94.60
46139;DHT22;32398;49.112;8.598;2022-11-06T14:47:30;9.40;94.60
46139;DHT22;32398;49.112;8.598;2022-11-06T14:49:58;9.40;94.60
46139;DHT22;32398;49.112;8.598;2022-11-06T14:52:26;9.40;94.60
46139;DHT22;32398;49.112;8.598;2022-11-06T14:54:56;9.40;94.60
46139;DHT22;32398;49.112;8.598;2022-11-06T14:57:34;9.30;94.50
46139;DHT22;32398;49.112;8.598;2022-11-06T15:00:03;9.40;94.60
46139;DHT22;32398;49.112;8.598;2022-11-06T15:02:30;9.40;94.60
46139;DHT22;32398;49.112;8.598;2022-11-06T15:05:00;9.40;94.60
46139;DHT22;32398;49.112;8.598;2022-11-06T15:07:32;9.40;94.60
46139;DHT22;32398;49.112;8.598;2022-11-06T15:10:00;9.40;94.60
46139;DHT22;32398;49.112;8.598;2022-11-06T15:15:14;9.40;94.50
46139;DHT22;32398;49.112;8.598;2022-11-06T15:17:42;9.40;94.50
46139;DHT22;32398;49.112;8.598;2022-11-06T15:20:18;9.50;94.60
46139;DHT22;32398;49.112;8.598;2022-11-06T15:22:48;9.40;94.60
46139;DHT22;32398;49.112;8.598;2022-11-06T15:25:20;9.50;94.60
46139;DHT22;32398;49.112;8.598;2022-11-06T15:27:50;9.40;94.60
46139;DHT22;32398;49.112;8.598;2022-11-06T15:30:18;9.40;94.60
46139;DHT22;32398;49.112;8.598;2022-11-06T15:32:45;9.40;94.70
46139;DHT22;32398;49.112;8.598;2022-11-06T15:35:14;9.40;94.70
46139;DHT22;32398;49.112;8.598;2022-11-06T15:37:42;9.40;94.80
46139;DHT22;32398;49.112;8.598;2022-11-06T15:40:20;9.40;94.80
46139;DHT22;32398;49.112;8.598;2022-11-06T15:42:47;9.40;94.80
46139;DHT22;32398;49.112;8.598;2022-11-06T15:45:19;9.40;94.80
46139;DHT22;32398;49.112;8.598;2022-11-06T15:47:51;9.40;94.80
46139;DHT22;32398;49.112;8.598;2022-11-06T15:50:19;9.40;94.90
46139;DHT22;32398;49.112;8.598;2022-11-06T15:52:46;9.40;94.90
46139;DHT22;32398;49.112;8.598;2022-11-06T15:55:13;9.40;95.00
46139;DHT22;32398;49.112;8.598;2022-11-06T15:57:41;9.40;94.90
46139;DHT22;32398;49.112;8.598;2022-11-06T16:00:08;9.40;95.10
46139;DHT22;32398;49.112;8.598;2022-11-06T16:02:44;9.40;95.00
46139;DHT22;32398;49.112;8.598;2022-11-06T16:05:11;9.40;95.00
46139;DHT22;32398;49.112;8.598;2022-11-06T16:07:38;9.40;95.00
46139;DHT22;32398;49.112;8.598;2022-11-06T16:10:05;9.40;95.00
46139;DHT22;32398;49.112;8.598;2022-11-06T16:12:31;9.30;95.30
46139;DHT22;32398;49.112;8.598;2022-11-06T16:14:59;9.40;95.40